Lubbock, TX (79424)

2:32 AM CDT en Noviembre 01, 2014 (GMT -0500)
Monterey | Change Station
CLOSE
Current Station
Estación meteorológica personal
Location: Lubbock, TX
Altura: 3281 ft
Estaciones meteorológicas cercanas
Aviso en curso: Special Statement

Alt 3281 ft 33.52 °N, 101.96 °W | Updated 9 minutes ago

Despejado
Despejado
43.2 ° F
Sensación térmica 41 ° F
N
3.7
Viento Variable Viento desde ESE

Hoy
Alta -- | Baja -- ° F
--% Posibilidad de precipitaciones
Ayer
Alta -- | Baja -- ° F
Precip. -- pul
8:06 AM 6:55 PM
Gibosa creciente, 64% visible
Presión 30.28 pul
Visibilidad 10.0 Millas
Nubes Baja 15000 ft
Baja 30000 ft
Vientos helados 41 ° F
Punto de rocío 32 ° F
Humedad 65%
Precipitaciones 0.00 pul
Espesor de la nieve No disponible.
UV 0 de una escala de 12
Polen 5.60 de una escala de 12
Calidad del aire No disponible.
Flu Activity No disponible.
METAR KLBB 010653Z 14007KT 10SM FEW150 FEW300 04/M01 A3033 RMK AO2 SLP252 T00391011

More Conditions Fewer Conditions

Presión 30.28 pul
Visibilidad 10.0 Millas
Nubes Baja 15000 ft
Baja 30000 ft
Vientos helados 41 ° F
Punto de rocío 32 ° F
Humedad 65%
Precipitaciones 0.00 pul
Espesor de la nieve No disponible.
UV 0 de una escala de 12
Polen 5.60 de una escala de 12
Calidad del aire No disponible.
Flu Activity No disponible.
METAR KLBB 010653Z 14007KT 10SM FEW150 FEW300 04/M01 A3033 RMK AO2 SLP252 T00391011

More Conditions Fewer Conditions

10-Day Weather Forecast

Almanac

Astronomía

Nov. 01, 2014 Salida Puesta
Hora real
Crepúsculo civil
Crepúsculo náutico
Crepúsculo astronómico
Luna
Horas de luz
Horas de luz
Tomorrow will be .
, % of the Moon is Illuminated

Extremos de hoy

Máximos del estado Bajos del estado

Community

WunderPhotos

Upload Photos

1,766,866 ¡fotos cargadas!

WunderBlogs® & News

Nearby

Calidad del aire

  Calidad del aire Índice AQ Contaminante
Not available.

Grosos de nieve

Estación Profundido Altura

Actividad de terremotos

Ciudad Distance Mag. Tiempo y dato
Magnitud mínima muestra es 2,5.

Temperaturas de aguas costeras

Lugar Temperatura

Estaciones meteorológicas cercanas